createdAt,value
2016-09-30T00:00:19.382Z,75.15
2016-09-30T00:01:19.731Z,75.82
2016-09-30T00:02:19.322Z,75.54
2016-09-30T00:03:19.286Z,75.73
2016-09-30T00:04:19.260Z,74.82
2016-09-30T00:05:19.244Z,75.34
2016-09-30T00:06:19.233Z,74.96
2016-09-30T00:07:19.196Z,74.57
2016-09-30T00:08:19.244Z,74.09
2016-09-30T00:09:19.161Z,73.71
2016-09-30T00:10:19.516Z,73.74
2016-09-30T00:11:19.105Z,73.65
2016-09-30T00:12:19.064Z,74.67
2016-09-30T00:13:19.089Z,74.96
2016-09-30T00:14:19.024Z,75.15
2016-09-30T00:15:18.980Z,74.76
2016-09-30T00:16:33.636Z,75.34
2016-09-30T00:17:18.952Z,75.73
2016-09-30T00:18:18.914Z,75.21
2016-09-30T00:19:18.861Z,75.54
2016-09-30T00:20:18.843Z,75.34
2016-09-30T00:21:18.827Z,75.15
2016-09-30T00:22:19.266Z,74.76
2016-09-30T00:23:33.759Z,74.38
2016-09-30T00:24:19.052Z,74.67
2016-09-30T00:25:18.736Z,73.9
2016-09-30T00:26:19.204Z,74.76
2016-09-30T00:27:18.665Z,73.8
2016-09-30T00:28:18.653Z,73.84
2016-09-30T00:29:19.257Z,73.36
2016-09-30T00:30:18.579Z,73.94
2016-09-30T00:31:18.950Z,74.8
2016-09-30T00:32:18.537Z,74.86
2016-09-30T00:33:18.537Z,74.86
2016-09-30T00:34:33.161Z,74.29
2016-09-30T00:35:18.450Z,74.76
2016-09-30T00:36:18.434Z,74.13
2016-09-30T00:37:18.456Z,73.71
2016-09-30T00:38:18.386Z,73.55
2016-09-30T00:39:18.453Z,73.9
2016-09-30T00:40:18.424Z,73.9
2016-09-30T00:41:32.978Z,73.8
2016-09-30T00:42:18.724Z,73.8
2016-09-30T00:43:18.340Z,73.94
2016-09-30T00:44:18.304Z,73.07
2016-09-30T00:45:18.211Z,73.07
2016-09-30T00:46:18.201Z,73.07
2016-09-30T00:47:18.199Z,73.65
2016-09-30T00:48:18.107Z,73.36
2016-09-30T00:49:18.126Z,73.55
2016-09-30T00:50:18.476Z,73.99
2016-09-30T00:51:18.084Z,73.74
2016-09-30T00:52:18.059Z,72.49
2016-09-30T00:53:17.970Z,72.63
2016-09-30T00:54:17.963Z,71.85
2016-09-30T00:55:17.932Z,72.43
2016-09-30T00:56:17.949Z,72.39
2016-09-30T00:57:17.878Z,72.14
2016-09-30T00:58:17.840Z,72.05
2016-09-30T00:59:17.830Z,72.33
2016-09-30T01:00:17.803Z,73.16
2016-09-30T01:01:32.475Z,73.16
2016-09-30T01:02:17.742Z,72.78
2016-09-30T01:03:17.724Z,72.97
2016-09-30T01:04:17.688Z,73.42
2016-09-30T01:05:17.662Z,74.09
2016-09-30T01:06:17.727Z,73.51
2016-09-30T01:07:17.613Z,73.9
2016-09-30T01:08:18.047Z,73.8
2016-09-30T01:09:17.567Z,73.55
2016-09-30T01:10:17.544Z,73.22
2016-09-30T01:11:17.504Z,74.86
2016-09-30T01:12:24.146Z,74.86
2016-09-30T01:13:17.527Z,74.67
2016-09-30T01:14:17.824Z,74.67
2016-09-30T01:15:17.784Z,74.67
2016-09-30T01:16:32.077Z,74.22
2016-09-30T01:17:17.353Z,73.65
2016-09-30T01:18:17.720Z,72.97
2016-09-30T01:19:17.403Z,73.16
2016-09-30T01:20:17.273Z,73.16
2016-09-30T01:21:17.653Z,73.07
2016-09-30T01:22:17.221Z,72.97
2016-09-30T01:23:17.223Z,72.3
2016-09-30T01:24:17.533Z,72.59
2016-09-30T01:25:17.140Z,72.11
2016-09-30T01:26:17.111Z,71.72
2016-09-30T01:27:17.091Z,72.39
2016-09-30T01:28:17.437Z,72.01
2016-09-30T01:29:17.513Z,72.3
2016-09-30T01:30:17.009Z,72.59
2016-09-30T01:31:16.984Z,71.88
2016-09-30T01:32:16.999Z,72.74
2016-09-30T01:33:16.923Z,73.03
2016-09-30T01:34:16.900Z,73.22
2016-09-30T01:35:17.324Z,73.9
2016-09-30T01:37:16.828Z,73.8
2016-09-30T01:38:16.830Z,73.13
2016-09-30T01:39:16.760Z,72.55
2016-09-30T01:40:16.812Z,73.03
2016-09-30T01:41:16.716Z,72.84
2016-09-30T01:42:16.684Z,73.61
2016-09-30T01:43:17.091Z,73.99
2016-09-30T01:44:16.656Z,73.9
2016-09-30T01:45:16.605Z,73.8
2016-09-30T01:46:16.581Z,74.63
2016-09-30T01:47:16.581Z,74.09
2016-09-30T01:48:16.541Z,73.8
2016-09-30T01:49:16.503Z,73.71
2016-09-30T01:50:16.489Z,73.61
2016-09-30T01:51:16.532Z,73.61
2016-09-30T01:52:16.469Z,73.61
2016-09-30T01:53:16.407Z,73.03
2016-09-30T01:54:16.386Z,73.51
2016-09-30T01:55:16.339Z,73.22
2016-09-30T01:56:16.364Z,72.55
2016-09-30T01:57:16.292Z,73.61
2016-09-30T01:58:16.260Z,72.84
2016-09-30T01:59:16.253Z,73.03
2016-09-30T02:00:31.237Z,73.9
2016-09-30T02:01:16.178Z,74.15
2016-09-30T02:02:16.178Z,73.99
2016-09-30T02:03:16.149Z,73.61
2016-09-30T02:04:16.096Z,73.51
2016-09-30T02:05:16.079Z,73.61
2016-09-30T02:06:16.044Z,73.99
2016-09-30T02:07:16.035Z,73.9
2016-09-30T02:08:16.021Z,73.9
2016-09-30T02:09:15.985Z,73.71
2016-09-30T02:10:15.945Z,73.51
2016-09-30T02:11:15.930Z,73.71
2016-09-30T02:12:15.896Z,73.8
2016-09-30T02:13:15.918Z,73.8
2016-09-30T02:14:15.945Z,73.71
2016-09-30T02:15:16.207Z,73.9
2016-09-30T02:16:15.781Z,73.61
2016-09-30T02:17:15.760Z,73.61
2016-09-30T02:18:15.754Z,74.63
2016-09-30T02:19:15.907Z,74.57
2016-09-30T02:20:15.710Z,74.92
2016-09-30T02:21:15.665Z,74.82
2016-09-30T02:22:16.019Z,74.73
2016-09-30T02:23:15.613Z,74.82
2016-09-30T02:24:15.973Z,74.86
2016-09-30T02:25:15.559Z,74.92
2016-09-30T02:26:15.540Z,74.44
2016-09-30T02:27:15.508Z,74.92
2016-09-30T02:28:15.475Z,74.92
2016-09-30T02:29:15.478Z,74.76
2016-09-30T02:30:15.425Z,74.34
2016-09-30T02:31:15.408Z,73.9
2016-09-30T02:32:15.413Z,74.76
2016-09-30T02:33:15.354Z,74.48
2016-09-30T02:34:15.311Z,73.8
2016-09-30T02:35:15.678Z,73.99
2016-09-30T02:36:15.457Z,73.42
2016-09-30T02:37:15.724Z,73.61
2016-09-30T02:38:15.201Z,73.61
2016-09-30T02:39:15.173Z,73.51
2016-09-30T02:40:15.584Z,73.22
2016-09-30T02:41:15.513Z,73.16
2016-09-30T02:42:15.168Z,72.78
2016-09-30T02:43:15.466Z,73.32
2016-09-30T02:44:15.096Z,72.97
2016-09-30T02:45:29.752Z,72.94
2016-09-30T02:46:29.683Z,72.94
2016-09-30T02:47:14.978Z,73.07
2016-09-30T02:48:15.062Z,72.88
2016-09-30T02:49:29.597Z,72.49
2016-09-30T02:50:14.885Z,72.59
2016-09-30T02:51:15.329Z,73.55
2016-09-30T02:52:14.961Z,73.51
2016-09-30T02:53:14.809Z,73.16
2016-09-30T02:54:14.779Z,73.07
2016-09-30T02:55:15.147Z,72.55
2016-09-30T02:56:14.742Z,73.03
2016-09-30T02:57:15.045Z,73.22
2016-09-30T02:58:14.755Z,73.13
2016-09-30T02:59:14.710Z,73.16
2016-09-30T03:00:15.227Z,72.11
2016-09-30T03:01:15.299Z,72.11
2016-09-30T03:02:14.600Z,72.01
2016-09-30T03:03:14.571Z,72.39
2016-09-30T03:04:29.195Z,72.01
2016-09-30T03:05:14.548Z,72.2
2016-09-30T03:07:14.452Z,71.81
2016-09-30T03:08:14.716Z,72.26
2016-09-30T03:09:14.382Z,72.55
2016-09-30T03:10:14.439Z,72.26
2016-09-30T03:11:14.825Z,72.45
2016-09-30T03:12:14.317Z,72.74
2016-09-30T03:13:14.658Z,72.36
2016-09-30T03:14:14.691Z,73.22
2016-09-30T03:15:14.648Z,73.67
2016-09-30T03:16:14.795Z,73.32
2016-09-30T03:17:28.911Z,73.61
2016-09-30T03:18:14.196Z,73.77
2016-09-30T03:19:28.816Z,73.67
2016-09-30T03:20:14.330Z,73.57
2016-09-30T03:21:14.462Z,73.57
2016-09-30T03:22:14.058Z,73.51
2016-09-30T03:23:14.037Z,73.32
2016-09-30T03:24:13.983Z,73.13
2016-09-30T03:25:13.971Z,73.03
2016-09-30T03:26:13.949Z,72.74
2016-09-30T03:27:13.946Z,73.22
2016-09-30T03:29:13.857Z,72.36
2016-09-30T03:30:13.831Z,73.03
2016-09-30T03:31:13.812Z,73.42
2016-09-30T03:32:14.388Z,73.57
2016-09-30T03:33:13.750Z,73.28
2016-09-30T03:34:14.147Z,73.32
2016-09-30T03:35:13.702Z,73.57
2016-09-30T03:36:13.700Z,73.61
2016-09-30T03:37:13.669Z,73.03
2016-09-30T03:38:14.088Z,72.94
2016-09-30T03:39:14.095Z,73.13
2016-09-30T03:40:13.591Z,72.8
2016-09-30T03:41:13.542Z,72.94
2016-09-30T03:42:13.545Z,72.26
2016-09-30T03:43:13.491Z,71.69
2016-09-30T03:44:13.458Z,71.04
2016-09-30T03:45:13.600Z,72.2
2016-09-30T03:46:13.417Z,72.07
2016-09-30T03:47:13.606Z,72.26
2016-09-30T03:48:13.369Z,72.65
2016-09-30T03:49:13.353Z,71.59
2016-09-30T03:50:13.364Z,71.97
2016-09-30T03:51:13.289Z,72.07
2016-09-30T03:52:13.352Z,72.26
2016-09-30T03:53:13.223Z,71.49
2016-09-30T03:54:13.201Z,72.36
2016-09-30T03:55:13.175Z,72.26
2016-09-30T03:56:13.538Z,72.17
2016-09-30T03:57:13.117Z,72.17
2016-09-30T03:58:13.085Z,72.74
2016-09-30T03:59:13.077Z,72.26
2016-09-30T04:00:13.047Z,72.17
2016-09-30T04:01:13.477Z,71.53
2016-09-30T04:02:12.994Z,71.43
2016-09-30T04:03:12.969Z,71.97
2016-09-30T04:04:12.967Z,72.26
2016-09-30T04:05:27.645Z,72.94
2016-09-30T04:06:13.240Z,73.22
2016-09-30T04:07:12.852Z,73
2016-09-30T04:08:12.826Z,73.38
2016-09-30T04:09:12.804Z,73.19
2016-09-30T04:10:12.806Z,72.94
2016-09-30T04:11:13.053Z,72.8
2016-09-30T04:12:12.715Z,73.19
2016-09-30T04:13:12.718Z,72.94
2016-09-30T04:14:12.720Z,72.94
2016-09-30T04:15:12.663Z,73.42
2016-09-30T04:16:12.621Z,73.51
2016-09-30T04:18:12.953Z,72.94
2016-09-30T04:19:12.631Z,73.61
2016-09-30T04:20:12.517Z,73.67
2016-09-30T04:21:12.864Z,74.09
2016-09-30T04:22:12.557Z,72.36
2016-09-30T04:23:12.438Z,72.74
2016-09-30T04:24:12.575Z,72.45
2016-09-30T04:25:12.686Z,72.45
2016-09-30T04:27:27.019Z,71.4
2016-09-30T04:28:26.973Z,72.45
2016-09-30T04:29:12.656Z,72.26
2016-09-30T04:30:12.267Z,72.45
2016-09-30T04:31:12.221Z,72.94
2016-09-30T04:32:12.216Z,73.71
2016-09-30T04:34:12.135Z,74.05
2016-09-30T04:35:26.788Z,73.86
2016-09-30T04:36:12.104Z,73.61
2016-09-30T04:37:12.055Z,73.42
2016-09-30T04:39:12.016Z,73.77
2016-09-30T04:40:11.979Z,73.61
2016-09-30T04:41:12.582Z,73.61
2016-09-30T04:42:11.935Z,73.61
2016-09-30T04:43:11.921Z,73.51
2016-09-30T04:44:11.878Z,73.9
2016-09-30T04:45:12.162Z,73.61
2016-09-30T04:46:11.810Z,74.09
2016-09-30T04:47:11.828Z,73.71
2016-09-30T04:48:11.777Z,73.71
2016-09-30T04:49:12.235Z,72.74
2016-09-30T04:50:11.801Z,73.13
2016-09-30T04:51:11.703Z,73.32
2016-09-30T04:52:11.679Z,72.84
2016-09-30T04:53:11.650Z,73.61
2016-09-30T04:54:11.641Z,73.42
2016-09-30T04:55:11.695Z,73.61
2016-09-30T04:56:11.545Z,73.32
2016-09-30T04:57:11.924Z,73.13
2016-09-30T04:58:11.893Z,72.45
2016-09-30T04:59:11.471Z,71.88
2016-09-30T05:00:11.469Z,72.07
2016-09-30T05:01:11.424Z,72.84
2016-09-30T05:02:11.400Z,73.51
2016-09-30T05:03:11.575Z,73.51
2016-09-30T05:04:11.351Z,73.67
2016-09-30T05:05:11.388Z,73.42
2016-09-30T05:06:11.337Z,73.42
2016-09-30T05:07:11.259Z,73.9
2016-09-30T05:08:11.259Z,73.61
2016-09-30T05:09:11.238Z,72.26
2016-09-30T05:11:11.905Z,72.84
2016-09-30T05:12:25.813Z,72.45
2016-09-30T05:13:11.108Z,72.26
2016-09-30T05:14:11.132Z,72.45
2016-09-30T05:15:11.592Z,72.94
2016-09-30T05:16:11.105Z,72.94
2016-09-30T05:17:11.169Z,73.03
2016-09-30T05:18:10.992Z,72.94
2016-09-30T05:19:10.962Z,73.13
2016-09-30T05:20:11.109Z,73.42
2016-09-30T05:21:10.974Z,72.26
2016-09-30T05:22:10.882Z,71.97
2016-09-30T05:23:10.865Z,72.55
2016-09-30T05:24:11.239Z,71.4
2016-09-30T05:25:25.821Z,71.49
2016-09-30T05:26:10.844Z,72.07
2016-09-30T05:27:11.455Z,72.45
2016-09-30T05:28:10.729Z,72.45
2016-09-30T05:29:10.759Z,72.45
2016-09-30T05:30:11.042Z,72.45
2016-09-30T05:31:10.642Z,72.36
2016-09-30T05:32:11.096Z,72.55
2016-09-30T05:33:10.586Z,72.9
2016-09-30T05:34:10.967Z,73.09
2016-09-30T05:35:11.327Z,73.57
2016-09-30T05:36:25.201Z,72.71
2016-09-30T05:37:10.521Z,72.26
2016-09-30T05:38:10.468Z,72.55
2016-09-30T05:39:10.443Z,72.45
2016-09-30T05:40:11.393Z,73.09
2016-09-30T05:42:10.354Z,73.13
2016-09-30T05:43:24.994Z,73.13
2016-09-30T05:44:10.732Z,73.67
2016-09-30T05:45:10.290Z,73.09
2016-09-30T05:46:10.302Z,72.84
2016-09-30T05:47:10.249Z,72.36
2016-09-30T05:48:10.651Z,72.94
2016-09-30T05:49:10.621Z,73.09
2016-09-30T05:50:10.182Z,73.03
2016-09-30T05:51:24.894Z,73.71
2016-09-30T05:52:10.092Z,73.42
2016-09-30T05:53:10.092Z,73.13
2016-09-30T05:54:10.023Z,72.94
2016-09-30T05:55:10.064Z,72.36
2016-09-30T05:57:10.630Z,72.36
2016-09-30T05:58:09.934Z,73.09
2016-09-30T05:59:09.909Z,73
2016-09-30T06:01:10.370Z,73
2016-09-30T06:02:09.946Z,73.67
2016-09-30T06:03:09.883Z,72.8
2016-09-30T06:04:10.011Z,73.32
2016-09-30T06:05:09.799Z,73.71
2016-09-30T06:06:09.724Z,73.77
2016-09-30T06:07:10.064Z,73.96
2016-09-30T06:08:09.681Z,73.03
2016-09-30T06:09:09.662Z,72.84
2016-09-30T06:10:09.597Z,73.71
2016-09-30T06:11:10.172Z,73.13
2016-09-30T06:12:09.543Z,73.86
2016-09-30T06:15:17.896Z,72.36
2016-09-30T06:16:10.190Z,72.55
2016-09-30T06:17:09.450Z,72.9
2016-09-30T06:18:09.441Z,73.09
2016-09-30T06:19:09.381Z,72.9
2016-09-30T06:20:09.366Z,72.74
2016-09-30T06:21:09.322Z,72.45
2016-09-30T06:22:09.750Z,71.97
2016-09-30T06:23:09.290Z,72.36
2016-09-30T06:24:09.222Z,73.13
2016-09-30T06:25:09.242Z,72.94
2016-09-30T06:26:09.591Z,72.17
2016-09-30T06:27:09.188Z,72.26
2016-09-30T06:28:09.120Z,72.17
2016-09-30T06:30:09.095Z,73.13
2016-09-30T06:32:09.024Z,72.74
2016-09-30T06:33:08.981Z,72.74
2016-09-30T06:34:09.003Z,73.71
2016-09-30T06:36:08.917Z,71.88
2016-09-30T06:37:23.560Z,71.97
2016-09-30T06:38:09.240Z,72.07
2016-09-30T06:39:08.907Z,72.17
2016-09-30T06:40:08.815Z,72.49
2016-09-30T06:41:08.922Z,72.94
2016-09-30T06:42:23.423Z,72.74
2016-09-30T06:43:09.110Z,72.36
2016-09-30T06:44:08.743Z,71.78
2016-09-30T06:45:08.692Z,70.86
2016-09-30T06:47:08.640Z,71.3
2016-09-30T06:48:08.673Z,71.88
2016-09-30T06:49:23.580Z,71.01
2016-09-30T06:50:08.845Z,71.62
2016-09-30T06:51:08.806Z,71.69
2016-09-30T06:52:08.495Z,71.97
2016-09-30T06:53:08.438Z,72.17
2016-09-30T06:54:09.015Z,72.26
2016-09-30T06:55:08.445Z,72.26
2016-09-30T06:56:08.446Z,72.45
2016-09-30T06:57:08.915Z,72.45
2016-09-30T06:58:09.721Z,72.52
2016-09-30T06:59:08.341Z,71.88
2016-09-30T07:00:08.374Z,71.94
2016-09-30T07:01:08.247Z,71.4
2016-09-30T07:02:08.259Z,71.4
2016-09-30T07:03:08.284Z,71.78
2016-09-30T07:04:08.231Z,72.26
2016-09-30T07:05:08.749Z,72.26
2016-09-30T07:06:08.124Z,73.09
2016-09-30T07:07:08.202Z,72.61
2016-09-30T07:08:08.090Z,72.26
2016-09-30T07:09:08.062Z,72.07
2016-09-30T07:10:08.082Z,71.78
2016-09-30T07:11:08.188Z,71.69
2016-09-30T07:12:07.951Z,71.69
2016-09-30T07:13:22.944Z,71.69
2016-09-30T07:14:08.365Z,71.01
2016-09-30T07:15:07.874Z,71.2
2016-09-30T07:16:07.862Z,71.3
2016-09-30T07:17:07.810Z,71.11
2016-09-30T07:18:07.861Z,71.88
2016-09-30T07:19:08.317Z,72.17
2016-09-30T07:20:07.848Z,71.78
2016-09-30T07:21:07.778Z,70.34
2016-09-30T07:22:07.799Z,71.01
2016-09-30T07:23:08.048Z,71.3
2016-09-30T07:24:07.632Z,71.34
2016-09-30T07:25:07.662Z,71.01
2016-09-30T07:26:07.735Z,70.43
2016-09-30T07:27:07.637Z,70.92
2016-09-30T07:28:07.520Z,70.92
2016-09-30T07:29:07.592Z,70.53
2016-09-30T07:30:07.491Z,70.43
2016-09-30T07:31:07.452Z,70.09
2016-09-30T07:32:07.852Z,70.47
2016-09-30T07:33:07.508Z,70.56
2016-09-30T07:34:22.410Z,69.99
2016-09-30T07:36:07.413Z,69.89
2016-09-30T07:37:07.304Z,69.79
2016-09-30T07:38:07.295Z,70.09
2016-09-30T07:39:07.314Z,69.02
2016-09-30T07:40:21.881Z,69.02
2016-09-30T07:41:07.714Z,70.02
2016-09-30T07:42:07.180Z,70.56
2016-09-30T07:43:07.707Z,70.47
2016-09-30T07:44:07.260Z,70.37
2016-09-30T07:45:07.143Z,70.37
2016-09-30T07:46:07.647Z,70.47
2016-09-30T07:47:07.017Z,69.89
2016-09-30T07:48:07.431Z,70.09
2016-09-30T07:49:06.976Z,70.56
2016-09-30T07:50:07.372Z,69.22
2016-09-30T07:51:06.907Z,68.58
2016-09-30T07:52:06.994Z,68.19
2016-09-30T07:53:06.913Z,69.06
2016-09-30T07:54:06.844Z,69.12
2016-09-30T07:55:06.822Z,68.96
2016-09-30T07:56:06.825Z,69.25
2016-09-30T07:57:07.195Z,69.25
2016-09-30T07:58:21.421Z,69.64
2016-09-30T07:59:06.719Z,69.6
2016-09-30T08:01:07.163Z,69.45
2016-09-30T08:02:12.919Z,69.35
2016-09-30T08:03:06.619Z,69.54
2016-09-30T08:04:06.953Z,69.93
2016-09-30T08:05:06.706Z,69.73
2016-09-30T08:06:06.667Z,70.31
2016-09-30T08:07:06.518Z,69.73
2016-09-30T08:08:06.852Z,69.25
2016-09-30T08:09:06.486Z,69.64
2016-09-30T08:10:06.940Z,69.06
2016-09-30T08:12:06.356Z,68.77
2016-09-30T08:13:06.381Z,68.77
2016-09-30T08:14:06.368Z,68.48
2016-09-30T08:15:06.289Z,68.38
2016-09-30T08:16:06.233Z,68.19
2016-09-30T08:17:06.224Z,68.29
2016-09-30T08:18:06.238Z,68.19
2016-09-30T08:19:06.239Z,68.87
2016-09-30T08:20:06.307Z,68.1
2016-09-30T08:21:06.182Z,68.68
2016-09-30T08:22:06.695Z,68.19
2016-09-30T08:23:06.122Z,68.68
2016-09-30T08:24:06.055Z,68.68
2016-09-30T08:25:06.023Z,68.19
2016-09-30T08:26:20.673Z,68.96
2016-09-30T08:27:06.009Z,68.77
2016-09-30T08:29:05.955Z,68.58
2016-09-30T08:30:06.224Z,68.58
2016-09-30T08:31:05.900Z,68.68
2016-09-30T08:32:05.824Z,68.68
2016-09-30T08:33:05.877Z,68.77
2016-09-30T08:34:06.074Z,68.38
2016-09-30T08:35:21.630Z,68.29
2016-09-30T08:36:22.376Z,69.15
2016-09-30T08:37:05.964Z,67.71
2016-09-30T08:38:06.237Z,67.42
2016-09-30T08:39:05.707Z,67.81
2016-09-30T08:40:05.749Z,67.71
2016-09-30T08:41:06.192Z,68.48
2016-09-30T08:42:05.585Z,68.48
2016-09-30T08:43:05.948Z,68.77
2016-09-30T08:45:05.475Z,68.48
2016-09-30T08:46:20.137Z,67.81
2016-09-30T08:47:05.808Z,67.26
2016-09-30T08:48:05.466Z,67.65
2016-09-30T08:49:05.393Z,67.74
2016-09-30T08:50:05.793Z,67.61
2016-09-30T08:51:05.437Z,67.74
2016-09-30T08:52:05.641Z,67.07
2016-09-30T08:53:05.340Z,67.26
2016-09-30T08:54:05.584Z,67.46
2016-09-30T08:55:05.282Z,66.78
2016-09-30T08:56:05.201Z,66.2
2016-09-30T08:57:05.227Z,66.97
2016-09-30T08:58:05.182Z,66.59
2016-09-30T08:59:05.668Z,66.39
2016-09-30T09:00:05.730Z,65.63
2016-09-30T09:01:05.072Z,65.72
2016-09-30T09:02:05.060Z,66.39
2016-09-30T09:03:05.054Z,66.2
2016-09-30T09:05:19.639Z,65.43
2016-09-30T09:06:05.857Z,65.14
2016-09-30T09:07:05.119Z,64.66
2016-09-30T09:08:04.889Z,64.86
2016-09-30T09:09:05.199Z,64.66
2016-09-30T09:10:04.835Z,63.89
2016-09-30T09:11:19.793Z,64.21
2016-09-30T09:12:04.789Z,63.6
2016-09-30T09:13:05.147Z,64.18
2016-09-30T09:14:19.415Z,64.95
2016-09-30T09:15:19.818Z,64.56
2016-09-30T09:16:04.727Z,64.66
2016-09-30T09:17:05.129Z,65.81
2016-09-30T09:18:04.640Z,65.72
2016-09-30T09:20:04.795Z,65.24
2016-09-30T09:21:04.566Z,65.24
2016-09-30T09:22:19.184Z,64.08
2016-09-30T09:23:04.850Z,63.6
2016-09-30T09:24:04.657Z,63.7
2016-09-30T09:25:04.841Z,63.7
2016-09-30T09:26:19.087Z,63.5
2016-09-30T09:28:19.034Z,63.79
2016-09-30T09:29:19.073Z,63.89
2016-09-30T09:30:05.207Z,64.08
2016-09-30T09:31:04.596Z,64.18
2016-09-30T09:32:04.972Z,63.7
2016-09-30T09:33:04.897Z,63.79
2016-09-30T09:34:05.183Z,64.95
2016-09-30T09:36:18.821Z,63.89
2016-09-30T09:37:18.819Z,64.47
2016-09-30T09:38:18.800Z,64.28
2016-09-30T09:39:04.723Z,63.79
2016-09-30T09:40:04.470Z,63.89
2016-09-30T09:41:04.016Z,64.08
2016-09-30T09:42:04.018Z,63.98
2016-09-30T09:43:04.001Z,64.28
2016-09-30T09:44:03.943Z,64.28
2016-09-30T09:46:04.080Z,64.08
2016-09-30T09:48:03.882Z,63.89
2016-09-30T09:49:03.863Z,62.83
2016-09-30T09:50:04.266Z,62.83
2016-09-30T09:51:24.714Z,62.15
2016-09-30T09:52:18.465Z,61.61
2016-09-30T09:53:18.437Z,61.68
2016-09-30T09:55:03.993Z,61.96
2016-09-30T09:56:18.345Z,63.02
2016-09-30T09:57:04.431Z,62.83
2016-09-30T09:58:18.290Z,62.15
2016-09-30T09:59:18.379Z,62.76
2016-09-30T10:02:03.570Z,61.61
2016-09-30T10:04:04.679Z,61.99
2016-09-30T10:05:03.574Z,61.8
2016-09-30T10:06:03.379Z,62.22
2016-09-30T10:07:18.026Z,61.83
2016-09-30T10:08:03.368Z,61.93
2016-09-30T10:09:03.377Z,62.09
2016-09-30T10:10:03.420Z,62.18
2016-09-30T10:11:03.314Z,61.8
2016-09-30T10:12:03.497Z,62.86
2016-09-30T10:13:03.296Z,63.15
2016-09-30T10:14:03.239Z,63.34
2016-09-30T10:15:03.929Z,62.28
2016-09-30T10:16:17.777Z,61.61
2016-09-30T10:17:03.579Z,61.9
2016-09-30T10:18:17.761Z,60.93
2016-09-30T10:19:03.140Z,60.35
2016-09-30T10:20:03.082Z,61.22
2016-09-30T10:21:02.982Z,61.03
2016-09-30T10:22:02.965Z,61.03
2016-09-30T10:23:03.112Z,60.06
2016-09-30T10:24:03.704Z,60.64
2016-09-30T10:25:02.922Z,61.22
2016-09-30T10:26:03.424Z,61.03
2016-09-30T10:27:03.246Z,61.71
2016-09-30T10:28:17.588Z,61.03
2016-09-30T10:30:03.421Z,61.03
2016-09-30T10:31:03.607Z,61.03
2016-09-30T10:32:03.317Z,60.64
2016-09-30T10:33:02.915Z,60.83
2016-09-30T10:34:02.715Z,61.13
2016-09-30T10:35:03.085Z,60.93
2016-09-30T10:36:03.698Z,61.22
2016-09-30T10:37:02.663Z,60.96
2016-09-30T10:39:03.255Z,60.38
2016-09-30T10:40:17.208Z,60.28
2016-09-30T10:41:03.222Z,60.86
2016-09-30T10:42:02.676Z,60.28
2016-09-30T10:43:02.584Z,59.9
2016-09-30T10:44:02.596Z,60.1
2016-09-30T10:45:17.027Z,60
2016-09-30T10:46:03.012Z,60.03
2016-09-30T10:47:03.079Z,60.1
2016-09-30T10:48:03.326Z,60.1
2016-09-30T10:49:03.094Z,60.28
2016-09-30T10:50:02.836Z,60.96
2016-09-30T10:52:16.890Z,60.58
2016-09-30T10:53:02.337Z,60.86
2016-09-30T10:54:03.108Z,59.9
2016-09-30T10:56:02.873Z,61.16
2016-09-30T10:57:02.023Z,61.25
2016-09-30T10:58:02.029Z,60.38
2016-09-30T10:59:02.402Z,61.35
2016-09-30T11:00:01.951Z,61.16
2016-09-30T11:01:02.732Z,61.22
2016-09-30T11:02:01.952Z,60.96
2016-09-30T11:03:02.945Z,61.32
2016-09-30T11:04:16.665Z,60.93
2016-09-30T11:05:03.556Z,60.83
2016-09-30T11:06:03.377Z,60.74
2016-09-30T11:07:02.825Z,60.35
2016-09-30T11:08:03.267Z,60.83
2016-09-30T11:09:03.055Z,61.06
2016-09-30T11:10:02.573Z,60.77
2016-09-30T11:11:01.684Z,59.9
2016-09-30T11:12:02.045Z,59.71
2016-09-30T11:13:02.977Z,60.96
2016-09-30T11:14:02.234Z,61.16
2016-09-30T11:15:01.616Z,59.9
2016-09-30T11:16:01.629Z,60.83
2016-09-30T11:17:16.190Z,60.93
2016-09-30T11:18:01.893Z,60.38
2016-09-30T11:19:01.536Z,60.48
2016-09-30T11:20:01.600Z,60.19
2016-09-30T11:21:01.649Z,60.77
2016-09-30T11:22:01.449Z,60.86
2016-09-30T11:23:01.396Z,60.86
2016-09-30T11:24:01.826Z,61.25
2016-09-30T11:25:01.372Z,60.83
2016-09-30T11:26:01.377Z,61.54
2016-09-30T11:27:01.399Z,61.06
2016-09-30T11:30:01.643Z,59.8
2016-09-30T11:31:01.183Z,60
2016-09-30T11:32:01.661Z,59.61
2016-09-30T11:33:01.120Z,59.61
2016-09-30T11:34:01.221Z,59.8
2016-09-30T11:35:01.133Z,59.8
2016-09-30T11:36:01.079Z,60
2016-09-30T11:37:01.010Z,59.71
2016-09-30T11:38:00.993Z,60.13
2016-09-30T11:41:15.656Z,60.38
2016-09-30T11:43:15.518Z,59.9
2016-09-30T11:44:00.990Z,60.38
2016-09-30T11:45:15.504Z,60.61
2016-09-30T11:46:01.010Z,59.55
2016-09-30T11:50:00.747Z,58.77
2016-09-30T11:51:15.307Z,58.1
2016-09-30T11:52:15.553Z,57.81
2016-09-30T11:53:00.598Z,57.87
2016-09-30T11:54:15.322Z,58.39
2016-09-30T11:55:00.805Z,58
2016-09-30T11:56:00.662Z,57.93
2016-09-30T11:57:00.865Z,58
2016-09-30T11:58:15.139Z,57.23
2016-09-30T11:59:01.515Z,57.9
